createdAt,value
2022-08-24T00:00:37.854Z,19.90
2022-08-24T00:03:05.147Z,19.70
2022-08-24T00:05:32.553Z,19.60
2022-08-24T00:07:59.734Z,19.60
2022-08-24T00:10:26.954Z,19.50
2022-08-24T00:12:54.165Z,19.50
2022-08-24T00:15:21.566Z,19.50
2022-08-24T00:17:48.717Z,19.50
2022-08-24T00:20:16.581Z,19.50
2022-08-24T00:22:43.935Z,19.50
2022-08-24T00:25:12.708Z,19.50
2022-08-24T00:27:41.072Z,19.40
2022-08-24T00:30:12.177Z,19.40
2022-08-24T00:32:39.450Z,19.30
2022-08-24T00:35:07.850Z,19.20
2022-08-24T00:37:36.511Z,19.20
2022-08-24T00:40:12.087Z,19.10
2022-08-24T00:42:40.558Z,19.10
2022-08-24T00:45:11.015Z,19.20
2022-08-24T00:47:47.697Z,19.20
2022-08-24T00:50:25.147Z,19.10
2022-08-24T00:53:02.768Z,19.00
2022-08-24T00:55:34.915Z,18.90
2022-08-24T00:58:07.835Z,18.80
2022-08-24T01:00:46.519Z,18.80
2022-08-24T01:03:16.419Z,18.90
2022-08-24T01:05:44.160Z,18.90
2022-08-24T01:08:13.482Z,18.80
2022-08-24T01:10:46.357Z,18.80
2022-08-24T01:13:14.675Z,18.80
2022-08-24T01:15:47.628Z,18.70
2022-08-24T01:18:40.438Z,18.70
2022-08-24T01:21:07.626Z,18.70
2022-08-24T01:23:54.695Z,18.50
2022-08-24T01:26:49.423Z,18.40
2022-08-24T01:29:23.705Z,18.30
2022-08-24T01:31:52.264Z,18.20
2022-08-24T01:34:21.127Z,18.10
2022-08-24T01:36:55.968Z,18.10
2022-08-24T01:39:33.861Z,18.10
2022-08-24T01:42:01.926Z,18.10
2022-08-24T01:44:32.983Z,18.20
2022-08-24T01:47:01.933Z,18.20
2022-08-24T01:49:41.547Z,18.20
2022-08-24T01:52:12.411Z,18.30
2022-08-24T01:54:40.292Z,18.30
2022-08-24T01:57:11.536Z,18.30
2022-08-24T01:59:44.292Z,18.30
2022-08-24T02:02:21.613Z,18.30
2022-08-24T02:04:48.789Z,18.30
2022-08-24T02:07:16.331Z,18.30
2022-08-24T02:09:43.547Z,18.10
2022-08-24T02:12:11.246Z,17.90
2022-08-24T02:14:40.922Z,17.80
2022-08-24T02:17:08.832Z,17.60
2022-08-24T02:19:36.966Z,17.50
2022-08-24T02:22:05.968Z,17.40
2022-08-24T02:24:36.739Z,17.40
2022-08-24T02:27:05.535Z,17.40
2022-08-24T02:29:34.397Z,17.40
2022-08-24T02:32:01.658Z,17.40
2022-08-24T02:34:29.502Z,17.40
2022-08-24T02:36:56.723Z,17.30
2022-08-24T02:39:24.010Z,17.30
2022-08-24T02:41:52.338Z,17.20
2022-08-24T02:44:20.506Z,17.20
2022-08-24T02:46:48.675Z,17.20
2022-08-24T02:49:19.161Z,17.20
2022-08-24T02:51:47.358Z,17.20
2022-08-24T02:54:19.288Z,17.30
2022-08-24T02:56:48.676Z,17.30
2022-08-24T02:59:19.567Z,17.40
2022-08-24T03:01:49.834Z,17.40
2022-08-24T03:04:19.080Z,17.40
2022-08-24T03:06:47.345Z,17.50
2022-08-24T03:09:14.725Z,17.50
2022-08-24T03:11:45.488Z,17.50
2022-08-24T03:14:14.403Z,17.50
2022-08-24T03:16:41.945Z,17.50
2022-08-24T03:19:09.343Z,17.40
2022-08-24T03:21:38.475Z,17.40
2022-08-24T03:24:06.128Z,17.40
2022-08-24T03:26:33.716Z,17.40
2022-08-24T03:29:00.975Z,17.40
2022-08-24T03:31:28.761Z,17.40
2022-08-24T03:33:56.013Z,17.40
2022-08-24T03:36:23.255Z,17.40
2022-08-24T03:38:50.503Z,17.40
2022-08-24T03:41:18.998Z,17.40
2022-08-24T03:43:46.341Z,17.20
2022-08-24T03:46:18.564Z,17.10
2022-08-24T03:48:48.958Z,16.90
2022-08-24T03:51:21.803Z,16.70
2022-08-24T03:53:51.481Z,16.60
2022-08-24T03:56:20.034Z,16.50
2022-08-24T03:58:47.861Z,16.50
2022-08-24T04:01:17.566Z,16.50
2022-08-24T04:03:47.414Z,16.50
2022-08-24T04:06:18.142Z,16.50
2022-08-24T04:08:45.771Z,16.50
2022-08-24T04:11:15.846Z,16.50
2022-08-24T04:13:45.397Z,16.50
2022-08-24T04:16:15.136Z,16.40
2022-08-24T04:18:43.795Z,16.40
2022-08-24T04:21:29.363Z,16.50
2022-08-24T04:23:57.679Z,16.60
2022-08-24T04:26:44.929Z,16.70
2022-08-24T04:29:16.495Z,16.70
2022-08-24T04:31:48.807Z,16.80
2022-08-24T04:34:18.283Z,16.80
2022-08-24T04:36:46.499Z,16.80
2022-08-24T04:39:14.903Z,16.80
2022-08-24T04:42:04.558Z,16.80
2022-08-24T04:44:37.058Z,16.80
2022-08-24T04:47:05.432Z,16.70
2022-08-24T04:49:33.023Z,16.70
2022-08-24T04:52:00.860Z,16.60
2022-08-24T04:54:28.582Z,16.60
2022-08-24T04:57:06.305Z,16.60
2022-08-24T04:59:34.278Z,16.60
2022-08-24T05:02:02.110Z,16.60
2022-08-24T05:04:29.376Z,16.60
2022-08-24T05:06:58.635Z,16.50
2022-08-24T05:09:25.827Z,16.60
2022-08-24T05:11:55.496Z,16.60
2022-08-24T05:14:28.785Z,16.70
2022-08-24T05:16:56.685Z,16.70
2022-08-24T05:19:24.484Z,16.80
2022-08-24T05:21:51.979Z,16.80
2022-08-24T05:24:20.090Z,16.80
2022-08-24T05:26:47.849Z,16.80
2022-08-24T05:29:18.892Z,16.90
2022-08-24T05:31:50.551Z,17.00
2022-08-24T05:34:18.351Z,17.20
2022-08-24T05:36:46.082Z,17.70
2022-08-24T05:39:36.355Z,18.30
2022-08-24T05:42:08.265Z,19.00
2022-08-24T05:44:39.230Z,19.60
2022-08-24T05:47:06.537Z,20.20
2022-08-24T05:49:37.239Z,20.70
2022-08-24T05:52:06.711Z,21.30
2022-08-24T05:54:33.891Z,21.80
2022-08-24T05:57:06.968Z,22.00
2022-08-24T05:59:43.721Z,22.40
2022-08-24T06:02:16.528Z,22.80
2022-08-24T06:04:44.937Z,23.10
2022-08-24T06:07:13.389Z,23.20
2022-08-24T06:09:44.731Z,23.50
2022-08-24T06:12:12.050Z,23.50
2022-08-24T06:14:44.884Z,23.10
2022-08-24T06:17:12.559Z,22.50
2022-08-24T06:19:40.505Z,22.00
2022-08-24T06:22:08.432Z,21.50
2022-08-24T06:24:58.500Z,21.20
2022-08-24T06:27:27.013Z,20.90
2022-08-24T06:29:58.822Z,20.80
2022-08-24T06:32:49.319Z,20.70
2022-08-24T06:35:28.689Z,20.50
2022-08-24T06:37:57.424Z,20.40
2022-08-24T06:40:25.898Z,20.40
2022-08-24T06:42:54.487Z,20.30
2022-08-24T06:45:43.819Z,20.40
2022-08-24T06:48:12.829Z,20.40
2022-08-24T06:50:40.419Z,20.40
2022-08-24T06:53:08.315Z,20.50
2022-08-24T06:55:35.807Z,20.60
2022-08-24T06:58:03.553Z,20.70
2022-08-24T07:00:31.043Z,20.80
2022-08-24T07:02:58.502Z,20.90
2022-08-24T07:05:26.291Z,20.90
2022-08-24T07:08:18.729Z,21.00
2022-08-24T07:10:46.181Z,21.10
2022-08-24T07:13:14.708Z,21.20
2022-08-24T07:15:42.886Z,21.30
2022-08-24T07:18:16.864Z,21.40
2022-08-24T07:20:49.143Z,21.40
2022-08-24T07:23:22.922Z,21.50
2022-08-24T07:26:15.145Z,21.70
2022-08-24T07:29:01.002Z,21.80
2022-08-24T07:31:35.145Z,21.90
2022-08-24T07:34:12.075Z,22.10
2022-08-24T07:36:44.294Z,22.20
2022-08-24T07:39:12.238Z,22.40
2022-08-24T07:42:02.411Z,22.50
2022-08-24T07:44:31.642Z,22.60
2022-08-24T07:47:07.227Z,22.90
2022-08-24T07:49:42.934Z,23.10
2022-08-24T07:52:10.640Z,23.10
2022-08-24T07:54:38.084Z,23.20
2022-08-24T07:57:06.580Z,23.40
2022-08-24T07:59:36.055Z,23.50
2022-08-24T08:02:05.081Z,23.70
2022-08-24T08:04:33.142Z,23.70
2022-08-24T08:07:01.442Z,23.80
2022-08-24T08:09:31.159Z,23.90
2022-08-24T08:12:01.974Z,24.10
2022-08-24T08:14:29.805Z,24.20
2022-08-24T08:16:57.038Z,24.20
2022-08-24T08:19:42.323Z,24.40
2022-08-24T08:26:17.851Z,24.70
2022-08-24T08:29:53.264Z,24.90
2022-08-24T08:53:29.836Z,25.60
2022-08-24T09:33:47.894Z,32.90
2022-08-24T09:36:35.236Z,34.20
2022-08-24T09:39:47.041Z,35.40
2022-08-24T09:42:51.587Z,36.40
2022-08-24T09:45:37.037Z,37.20
2022-08-24T09:48:23.028Z,37.40
2022-08-24T09:51:42.460Z,37.30
2022-08-24T09:54:48.372Z,35.30
2022-08-24T09:57:22.300Z,35.80
2022-08-24T10:00:10.250Z,36.70
2022-08-24T10:02:48.082Z,37.60
2022-08-24T10:05:51.285Z,38.00
2022-08-24T10:08:24.804Z,38.50
2022-08-24T10:11:14.822Z,38.60
2022-08-24T10:13:58.734Z,39.20
2022-08-24T10:16:59.829Z,39.80
2022-08-24T10:19:27.233Z,38.90
2022-08-24T10:22:28.265Z,38.30
2022-08-24T10:25:03.006Z,38.00
2022-08-24T10:27:46.022Z,37.80
2022-08-24T10:30:58.293Z,38.00
2022-08-24T10:33:44.038Z,37.70
2022-08-24T10:36:30.354Z,37.00
2022-08-24T10:39:41.106Z,36.40
2022-08-24T10:42:59.083Z,36.10
2022-08-24T10:45:48.369Z,35.60
2022-08-24T10:53:14.118Z,34.60
2022-08-24T10:55:42.035Z,33.70
2022-08-24T10:58:29.269Z,33.00
2022-08-24T11:01:12.196Z,32.60
2022-08-24T11:04:25.724Z,32.20
2022-08-24T11:16:07.794Z,32.30
2022-08-24T11:19:17.481Z,32.30
2022-08-24T11:22:21.902Z,32.30
2022-08-24T11:24:53.903Z,32.90
2022-08-24T11:27:47.577Z,34.50
2022-08-24T11:44:23.838Z,41.50
2022-08-24T11:47:03.313Z,42.70
2022-08-24T11:49:45.433Z,40.70
2022-08-24T11:52:33.049Z,39.90
2022-08-24T11:55:24.421Z,40.40
2022-08-24T11:57:53.901Z,40.50
2022-08-24T12:00:24.764Z,41.30
2022-08-24T12:03:03.406Z,41.90
2022-08-24T12:05:37.215Z,42.50
2022-08-24T12:08:26.143Z,43.00
2022-08-24T12:11:15.328Z,43.40
2022-08-24T12:14:19.270Z,43.90
2022-08-24T12:16:57.489Z,44.40
2022-08-24T12:19:30.811Z,45.00
2022-08-24T12:22:02.726Z,44.80
2022-08-24T12:24:40.910Z,44.20
2022-08-24T12:27:29.504Z,44.20
2022-08-24T12:30:07.606Z,44.00
2022-08-24T12:32:44.375Z,42.80
2022-08-24T12:35:22.212Z,42.70
2022-08-24T12:37:59.947Z,43.20
2022-08-24T12:40:47.234Z,43.90
2022-08-24T12:43:35.218Z,44.00
2022-08-24T12:46:03.758Z,43.60
2022-08-24T12:48:42.638Z,43.40
2022-08-24T12:51:37.673Z,43.50
2022-08-24T12:54:42.441Z,43.70
2022-08-24T12:57:15.462Z,44.10
2022-08-24T12:59:51.508Z,43.80
2022-08-24T13:02:18.725Z,43.50
2022-08-24T13:04:49.030Z,42.50
2022-08-24T13:07:18.979Z,42.40
2022-08-24T13:09:56.721Z,42.60
2022-08-24T13:12:46.016Z,42.80
2022-08-24T13:15:33.470Z,42.90
2022-08-24T13:18:10.530Z,43.30
2022-08-24T13:20:44.277Z,43.20
2022-08-24T13:23:13.893Z,43.30
2022-08-24T13:25:47.275Z,43.50
2022-08-24T13:28:20.780Z,43.70
2022-08-24T13:30:59.982Z,43.70
2022-08-24T13:33:43.221Z,43.90
2022-08-24T13:36:29.033Z,43.70
2022-08-24T13:39:00.491Z,43.50
2022-08-24T13:41:46.566Z,43.70
2022-08-24T13:44:45.875Z,43.60
2022-08-24T13:47:22.747Z,43.90
2022-08-24T13:50:02.126Z,44.70
2022-08-24T13:52:48.503Z,45.40
2022-08-24T13:55:45.253Z,45.70
2022-08-24T13:58:44.175Z,45.10
2022-08-24T14:01:33.171Z,44.30
2022-08-24T14:04:09.216Z,44.60
2022-08-24T14:07:08.419Z,44.80
2022-08-24T14:09:40.499Z,45.10
2022-08-24T14:12:31.932Z,45.40
2022-08-24T14:15:16.124Z,45.60
2022-08-24T14:18:05.170Z,45.30
2022-08-24T14:21:03.367Z,45.20
2022-08-24T14:24:02.254Z,45.60
2022-08-24T14:26:41.891Z,43.40
2022-08-24T14:29:17.996Z,43.60
2022-08-24T14:32:11.698Z,44.10
2022-08-24T14:35:13.303Z,44.10
2022-08-24T14:38:05.612Z,44.30
2022-08-24T14:41:00.601Z,44.80
2022-08-24T14:43:58.378Z,45.00
2022-08-24T14:46:59.289Z,44.10
2022-08-24T14:50:08.005Z,42.30
2022-08-24T14:53:28.461Z,42.10
2022-08-24T14:56:02.272Z,42.40
2022-08-24T14:58:52.552Z,42.60
2022-08-24T15:01:37.516Z,42.80
2022-08-24T15:04:37.749Z,43.10
2022-08-24T15:07:20.619Z,43.20
2022-08-24T15:09:48.220Z,43.10
2022-08-24T15:12:39.650Z,43.00
2022-08-24T15:15:13.443Z,42.90
2022-08-24T15:18:03.823Z,43.20
2022-08-24T15:21:15.229Z,43.40
2022-08-24T15:24:10.113Z,43.50
2022-08-24T15:26:55.661Z,44.10
2022-08-24T15:29:31.254Z,44.00
2022-08-24T15:32:06.184Z,43.60
2022-08-24T15:34:45.545Z,43.10
2022-08-24T15:37:15.947Z,42.80
2022-08-24T15:39:43.639Z,42.60
2022-08-24T15:42:14.437Z,42.40
2022-08-24T15:44:45.629Z,42.10
2022-08-24T15:47:18.862Z,41.70
2022-08-24T15:49:56.941Z,41.50
2022-08-24T15:53:00.163Z,41.70
2022-08-24T15:55:46.536Z,41.70
2022-08-24T15:58:35.036Z,41.40
2022-08-24T16:01:30.091Z,40.90
2022-08-24T16:04:03.501Z,40.70
2022-08-24T16:06:33.526Z,40.70
2022-08-24T16:09:22.711Z,40.70
2022-08-24T16:12:01.686Z,40.10
2022-08-24T16:14:37.361Z,39.20
2022-08-24T16:17:34.757Z,37.80
2022-08-24T16:20:12.290Z,37.00
2022-08-24T16:22:54.533Z,36.20
2022-08-24T16:25:41.036Z,35.60
2022-08-24T16:28:21.595Z,35.00
2022-08-24T16:31:01.188Z,34.60
2022-08-24T16:33:59.045Z,34.30
2022-08-24T16:36:26.933Z,34.00
2022-08-24T16:38:54.162Z,33.90
2022-08-24T16:41:24.203Z,33.70
2022-08-24T16:43:51.730Z,33.50
2022-08-24T16:46:22.700Z,33.30
2022-08-24T16:48:50.581Z,33.20
2022-08-24T16:51:17.758Z,33.10
2022-08-24T16:53:44.950Z,33.00
2022-08-24T16:56:16.339Z,32.80
2022-08-24T16:58:48.990Z,32.80
2022-08-24T17:01:16.800Z,32.70
2022-08-24T17:03:44.071Z,32.60
2022-08-24T17:06:12.409Z,32.50
2022-08-24T17:08:40.478Z,32.30
2022-08-24T17:11:15.339Z,32.20
2022-08-24T17:13:50.703Z,32.10
2022-08-24T17:16:20.050Z,32.00
2022-08-24T17:18:47.760Z,31.90
2022-08-24T17:21:15.048Z,31.80
2022-08-24T17:23:43.286Z,31.70
2022-08-24T17:26:20.214Z,31.60
2022-08-24T17:28:51.782Z,31.60
2022-08-24T17:31:19.189Z,31.50
2022-08-24T17:33:46.967Z,31.40
2022-08-24T17:36:16.064Z,31.20
2022-08-24T17:38:45.920Z,31.10
2022-08-24T17:41:14.745Z,31.10
2022-08-24T17:43:46.001Z,31.00
2022-08-24T17:46:14.842Z,30.80
2022-08-24T17:48:47.243Z,30.80
2022-08-24T17:51:14.809Z,30.60
2022-08-24T17:53:42.059Z,30.50
2022-08-24T17:56:09.958Z,30.40
2022-08-24T17:58:57.125Z,30.20
2022-08-24T18:01:24.832Z,30.10
2022-08-24T18:03:52.460Z,29.90
2022-08-24T18:06:23.195Z,29.80
2022-08-24T18:08:54.259Z,29.60
2022-08-24T18:11:25.656Z,29.40
2022-08-24T18:13:54.264Z,29.30
2022-08-24T18:16:24.826Z,29.20
2022-08-24T18:18:53.887Z,29.10
2022-08-24T18:21:21.941Z,28.90
2022-08-24T18:23:50.233Z,28.70
2022-08-24T18:26:27.754Z,28.60
2022-08-24T18:28:58.234Z,28.50
2022-08-24T18:31:27.987Z,28.30
2022-08-24T18:33:55.262Z,28.20
2022-08-24T18:36:22.437Z,28.10
2022-08-24T18:38:49.779Z,28.00
2022-08-24T18:41:17.439Z,27.90
2022-08-24T18:43:47.875Z,27.70
2022-08-24T18:46:15.223Z,27.60
2022-08-24T18:48:42.480Z,27.60
2022-08-24T18:51:23.976Z,27.50
2022-08-24T18:54:05.245Z,27.40
2022-08-24T18:56:32.875Z,27.40
2022-08-24T18:59:00.099Z,27.30
2022-08-24T19:01:28.361Z,27.20
2022-08-24T19:03:56.213Z,27.10
2022-08-24T19:06:24.241Z,27.00
2022-08-24T19:08:51.559Z,26.90
2022-08-24T19:11:22.874Z,26.90
2022-08-24T19:13:50.191Z,26.70
2022-08-24T19:16:17.545Z,26.70
2022-08-24T19:18:44.887Z,26.60
2022-08-24T19:21:12.136Z,26.40
2022-08-24T19:23:40.404Z,26.20
2022-08-24T19:26:07.704Z,26.00
2022-08-24T19:28:35.019Z,25.80
2022-08-24T19:31:05.134Z,25.60
2022-08-24T19:33:36.775Z,25.50
2022-08-24T19:36:04.644Z,25.40
2022-08-24T19:38:31.887Z,25.20
2022-08-24T19:41:02.441Z,25.10
2022-08-24T19:43:58.436Z,25.10
2022-08-24T19:46:26.322Z,25.10
2022-08-24T19:48:53.941Z,25.30
2022-08-24T19:51:21.147Z,25.40
2022-08-24T19:53:48.463Z,25.50
2022-08-24T19:56:15.659Z,25.60
2022-08-24T19:58:46.837Z,25.70
2022-08-24T20:01:20.911Z,25.70
2022-08-24T20:03:48.934Z,25.70
2022-08-24T20:06:18.055Z,25.70
2022-08-24T20:08:48.426Z,25.70
2022-08-24T20:11:16.739Z,25.70
2022-08-24T20:13:44.071Z,25.60
2022-08-24T20:16:16.251Z,25.50
2022-08-24T20:18:44.212Z,25.40
2022-08-24T20:21:12.138Z,25.40
2022-08-24T20:23:39.644Z,25.40
2022-08-24T20:26:07.870Z,25.30
2022-08-24T20:28:46.068Z,25.20
2022-08-24T20:31:15.111Z,25.10
2022-08-24T20:33:45.258Z,24.90
2022-08-24T20:36:27.845Z,24.90
2022-08-24T20:38:57.939Z,24.80
2022-08-24T20:41:26.812Z,24.90
2022-08-24T20:43:54.944Z,25.00
2022-08-24T20:46:25.641Z,25.00
2022-08-24T20:48:55.577Z,24.90
2022-08-24T20:51:25.568Z,24.90
2022-08-24T20:53:53.371Z,24.90
2022-08-24T20:56:31.030Z,24.80
2022-08-24T20:59:01.764Z,24.70
2022-08-24T21:01:30.211Z,24.70
2022-08-24T21:04:01.496Z,24.60
2022-08-24T21:06:32.679Z,24.50
2022-08-24T21:09:00.597Z,24.40
2022-08-24T21:11:27.916Z,24.40
2022-08-24T21:13:55.279Z,24.30
2022-08-24T21:16:22.582Z,24.30
2022-08-24T21:18:50.107Z,24.10
2022-08-24T21:21:17.534Z,24.10
2022-08-24T21:23:44.743Z,24.10
2022-08-24T21:26:14.519Z,24.10
2022-08-24T21:28:42.782Z,24.00
2022-08-24T21:31:10.273Z,24.00
2022-08-24T21:33:56.316Z,23.90
2022-08-24T21:36:24.995Z,23.80
2022-08-24T21:38:54.572Z,23.80
2022-08-24T21:41:22.487Z,23.70
2022-08-24T21:43:50.682Z,23.70
2022-08-24T21:46:20.092Z,23.70
2022-08-24T21:48:47.857Z,23.70
2022-08-24T21:51:17.538Z,23.80
2022-08-24T21:53:44.720Z,23.70
2022-08-24T21:56:12.265Z,23.60
2022-08-24T21:58:39.420Z,23.60
2022-08-24T22:01:09.532Z,23.50
2022-08-24T22:03:40.313Z,23.40
2022-08-24T22:06:09.647Z,23.30
2022-08-24T22:08:38.250Z,23.30
2022-08-24T22:11:06.240Z,23.20
2022-08-24T22:13:34.498Z,23.20
2022-08-24T22:16:02.537Z,23.20
2022-08-24T22:18:30.508Z,23.10
2022-08-24T22:20:58.086Z,23.10
2022-08-24T22:23:25.397Z,23.10
2022-08-24T22:25:55.017Z,23.10
2022-08-24T22:28:24.085Z,23.10
2022-08-24T22:30:56.259Z,23.20
2022-08-24T22:33:23.790Z,23.20
2022-08-24T22:35:53.305Z,23.30
2022-08-24T22:38:21.371Z,23.30
2022-08-24T22:40:55.477Z,23.20
2022-08-24T22:43:25.110Z,23.10
2022-08-24T22:45:52.450Z,23.00
2022-08-24T22:48:19.674Z,22.90
2022-08-24T22:50:46.958Z,22.80
2022-08-24T22:53:16.307Z,22.70
2022-08-24T22:55:43.518Z,22.80
2022-08-24T22:58:10.666Z,22.80
2022-08-24T23:00:39.346Z,22.80
2022-08-24T23:03:06.743Z,22.80
2022-08-24T23:05:33.906Z,22.70
2022-08-24T23:08:01.771Z,22.60
2022-08-24T23:10:28.960Z,22.60
2022-08-24T23:12:56.156Z,22.50
2022-08-24T23:15:23.318Z,22.40
2022-08-24T23:17:50.558Z,22.40
2022-08-24T23:20:17.934Z,22.40
2022-08-24T23:22:48.114Z,22.30
2022-08-24T23:25:15.693Z,22.30
2022-08-24T23:27:44.476Z,22.30
2022-08-24T23:30:14.148Z,22.30
2022-08-24T23:32:41.873Z,22.30
2022-08-24T23:35:09.614Z,22.20
2022-08-24T23:37:36.817Z,22.10
2022-08-24T23:40:04.961Z,21.90
2022-08-24T23:42:32.211Z,21.80
2022-08-24T23:44:59.384Z,21.70
2022-08-24T23:47:27.080Z,21.60
2022-08-24T23:49:55.412Z,21.50
2022-08-24T23:52:28.651Z,21.50
2022-08-24T23:55:11.585Z,21.40
2022-08-24T23:57:46.086Z,21.40
